Weather at Chaudhary Charan Singh International Airport

Public forecast

Using degrees Celsius for public forecast. Weather courtesy of forecast.io.

Current aviation weather report (METAR) for Chaudhary Charan Singh International Airport

Retrieved 2020/09/23 11:30 UTC (21 minutes ago):

VILK 231130Z 04006KT 3000 BR FEW015 BKN018 OVC090 28/27 Q0999 NOSIG

Aviation forecast (TAF) for Chaudhary Charan Singh International Airport

Retrieved 2020/09/23 06:00 UTC (6 hours ago):

TAF VILK 230500Z 2306/2412 07005KT 3000 -RA BR SCT012 SCT018 OVC090 TEMPO 2306/2310 FEW030CB BECMG 2310/2312 2000 BR RA SCT020 BKN100 TEMPO 2312/2315 FEW030CB BECMG 2320/2322 2000 RS -RA TEMPO 2404/2408 1500 TSRA RA FEW030CB OVC090 BECMG 2410/2412 3500 BR -RA